Jalingo Airport

METAR DNYO TAF DNYO
37 °C
°C
-
°C
2h
Edad
17:02:40
LT
16:02
UTC
0 ft

1.000

2.000

3.000

4.000

5.000

VFR
<?= Yii::t('app', 'Wind direction') ?> <?= Yii::t('app', 'of'); ?>
VAR
18:17
Puesta de sol
14%
Humedad
Cizalladura del viento
Cerrado/Nieve
Alcance visual RWY
Estado de la RWY
Visibilidad vert.
Visibilidad mínima
CAVOK
Tendencia
Corrección
Informe especial
1009 hPa
QNH
METAR DNYO 071400Z 00000KT 8000 NSC 37/05 Q1009
Despejado
0 kt
0 kt
17:00
MVFR
8 kt
18:00
MVFR
8 kt
19:00
MVFR
8 kt
20:00
MVFR
8 kt
21:00
MVFR
8 kt
22:00
MVFR
8 kt
23:00
MVFR
8 kt
8 km
Visibilidad
No
Cielo nuboso
No
Viento
metar-taf.com/DNJA

Metar-Taf.com

Decodificador visual

Nosotros y terceros seguimos tu comportamiento en Internet en nuestro sitio web con cookies. Si continúas, asumimos que estás de acuerdo con nuestra Política de cookies.